Live Audio



buiten  Outside


The Shack  The Shack


Woonkamer  Woonkamer


The Shack 2  The Shack 2


Onweer radar Meer informatie blitzortung!


Regen radar Meer informatie rain snow radar


Bezoek onze andere website:

Template - Daily NOAA Satelite Images



Het weer levert geen direct gevaar op.    Er zijn geen waarschuwingen afgegeven.

METAR rapporten vliegvelden

   
EHAM - Amsterdam/Schiph, Netherlands
Afstand tot: OZO 26 km
Gewijzigd: 16-08-2018 23:55
Wat regen mogelijk, Licht bewolkt  
Wat regen mogelijk, Licht bewolkt  
   Wind: Zuiden 7.4 km/h
Wind: Zuiden 7.4 km/h
Temperatuur: 17°C
Dauwpunt: 15°C
Vochtigheid: 88%
Barometer: 1015 hPa
Bewolking: Few Clouds
Zicht: More then 10 km
Bewolking: Licht bewolkt 609.6 m
EHAM 162155Z 18004KT 9999 -RA FEW020 17/15 Q1015 NOSIG
EHRD - Rotterdam Airpor, Netherlands
Afstand tot: Z 50 km
Gewijzigd: 16-08-2018 23:55
Regen, Gedeeltelijk bewolkt  
Regen, Gedeeltelijk bewolkt  
   Wind: Westen 14.8 km/h
Wind: Westen 14.8 km/h
Temperatuur: 17°C
Dauwpunt: 15°C
Vochtigheid: 88%
Barometer: 1015 hPa
Bewolking: Partly Cloudy
Zicht: More then 10 km
Bewolking: Licht bewolkt 457.2 m,
Gedeeltelijk bewolkt 762 m
EHRD 162155Z AUTO 26008KT 230V300 9999 RA FEW015CB SCT025 17/15 Q1015 NOSIG
EHQE - Hoorn-A Sea, Netherlands
Afstand tot: NNW 60 km
Gewijzigd: 16-08-2018 23:55
Grotendeels bewolkt  
Grotendeels bewolkt  
   Wind: Westen 25.9 km/h
Wind: Westen 25.9 km/h
Temperatuur: 17°C
Dauwpunt: 14°C
Vochtigheid: 83%
Barometer: 1014 hPa
Bewolking: Mostly Cloudy
Zicht: More then 10 km
Bewolking: Licht bewolkt 213.4 m,
Grotendeels bewolkt 1432.6 m
EHQE 162155Z AUTO 28014KT 9999 FEW007 BKN047 17/14 Q1014 W///H///
EHKD - De Kooy (navy), Netherlands
Afstand tot: NNO 61 km
Gewijzigd: 17-08-2018 00:08
Grotendeels bewolkt  
Grotendeels bewolkt  
   Wind: Zuiden 7.4 km/h
Wind: Zuiden 7.4 km/h
Temperatuur: 16°C
Dauwpunt: 15°C
Vochtigheid: 94%
Barometer: 1014 hPa
Bewolking: Mostly Cloudy
Zicht: More then 10 km
Bewolking: Licht bewolkt 457.2 m,
Gedeeltelijk bewolkt 701 m,
Grotendeels bewolkt 944.9 m
EHKD 162208Z AUTO 18004KT 9999 FEW015CB SCT023 BKN031 16/15 Q1014 WHT
EHPG - P11-B Sea, Netherlands
Afstand tot: W 73 km
Gewijzigd: 16-08-2018 23:55
Gedeeltelijk bewolkt  
Gedeeltelijk bewolkt  
   Wind: varieert 20.4 km/h
Wind: varieert 20.4 km/h
Temperatuur: 18°C
Dauwpunt: 13°C
Vochtigheid: 73%
Barometer: 1014 hPa
Bewolking: Partly Cloudy
Zicht: More then 10 km
Bewolking: Gedeeltelijk bewolkt m
EHPG 162155Z AUTO VRB11KT 9999 NSC 18/13 Q1014 W///H///
EHSC - Goeree Le Sea, Netherlands
Afstand tot: ZW 74 km
Gewijzigd: 16-08-2018 23:55
  
  
   Wind: WNW 35.2 km/h
Wind: WNW 35.2 km/h
Temperatuur: 19°C
Dauwpunt: 13°C
Vochtigheid: 68%
Barometer: 1014 hPa
Zicht: More then 10 km
EHSC 162155Z AUTO 29019KT 9999 ///////// 19/13 Q1014 W21/H9

Script ontwikkeld door  Saratoga-weather.org Aangepast voor de template door  Weerstation Leuven

U vindt ons ook hier:

Het Weer Aktueel

UK Metoffice

Weather Underground

AWEKAS

HAMweather, WeatherForYou, PWS Weather

Apparatuur in gebruik:

Weerstation
Davis VP2

Weerprogramma
Weather Display

Weercomputer
Paradigit

Webleverancier
Mijn provider

Davis VP2

Weather Display

Paradigit

Mijn provider